Time;durP1;ratioP1;P1;durP2;ratioP2;P2;SDS_P1;SDS_P2;PMS_P1;PMS_P2;Temp;Humidity;BMP_temperature;BMP_pressure;BME280_temperature;BME280_humidity;BME280_pressure;Samples;Min_cycle;Max_cycle;Signal;HPM_P1;HPM_P2
2022/08/21 00:02:25;;;;;;;0.50;0.50;;;15.10;99.90;;;;;;5093135;28;20186;-69
2022/08/21 00:04:51;;;;;;;0.73;0.73;;;15.20;99.90;;;;;;5093356;28;20249;-69
2022/08/21 00:07:19;;;;;;;1.33;1.33;;;15.20;99.90;;;;;;5095837;28;20433;-69
2022/08/21 00:09:45;;;;;;;0.50;0.50;;;15.10;99.90;;;;;;5097328;28;20394;-69
2022/08/21 00:12:11;;;;;;;0.60;0.60;;;15.00;99.90;;;;;;5097142;28;20806;-70
2022/08/21 00:14:37;;;;;;;0.37;0.37;;;15.00;99.90;;;;;;5097240;28;20410;-70
2022/08/21 00:17:04;;;;;;;0.93;0.93;;;15.00;99.90;;;;;;5097104;28;20192;-70
2022/08/21 00:19:31;;;;;;;0.50;0.50;;;14.90;99.90;;;;;;5097111;28;20951;-68
2022/08/21 00:21:57;;;;;;;0.40;0.40;;;14.90;99.90;;;;;;5097257;28;20407;-69
2022/08/21 00:24:24;;;;;;;0.90;0.80;;;15.00;99.90;;;;;;5097132;28;20499;-69
2022/08/21 00:26:49;;;;;;;0.70;0.70;;;14.90;99.90;;;;;;5097162;28;20172;-69
2022/08/21 00:29:15;;;;;;;0.57;0.57;;;14.90;99.90;;;;;;5096811;28;20770;-70
2022/08/21 00:31:42;;;;;;;6.23;0.90;;;15.00;99.90;;;;;;5096950;28;20222;-70
2022/08/21 00:34:09;;;;;;;0.50;0.50;;;15.10;99.90;;;;;;5096810;28;20496;-69
2022/08/21 00:36:36;;;;;;;0.70;0.70;;;15.10;99.90;;;;;;5096857;28;20797;-69
2022/08/21 00:39:07;;;;;;;0.50;0.50;;;15.10;99.90;;;;;;5096510;28;20807;-70
2022/08/21 00:41:35;;;;;;;0.60;0.60;;;15.10;99.90;;;;;;5096692;28;20405;-69
2022/08/21 00:44:01;;;;;;;0.40;0.40;;;15.20;99.90;;;;;;5096601;28;20414;-69
2022/08/21 00:46:27;;;;;;;0.40;0.40;;;15.20;99.90;;;;;;5096653;28;20404;-69
2022/08/21 00:48:52;;;;;;;0.70;0.70;;;15.10;99.90;;;;;;5096324;28;20428;-70
2022/08/21 00:51:28;;;;;;;0.40;0.40;;;15.00;99.90;;;;;;5096607;28;20419;-70
2022/08/21 00:53:59;;;;;;;0.43;0.43;;;14.90;99.90;;;;;;5096872;28;20168;-70
2022/08/21 00:56:25;;;;;;;0.90;0.90;;;14.90;99.90;;;;;;5096606;28;20421;-70
2022/08/21 00:58:52;;;;;;;1.20;1.10;;;14.80;99.90;;;;;;5096142;28;20417;-68
2022/08/21 01:01:18;;;;;;;0.40;0.40;;;14.90;99.90;;;;;;5096369;28;20402;-69
2022/08/21 01:03:46;;;;;;;0.80;0.73;;;14.90;99.90;;;;;;5096350;28;20437;-70
2022/08/21 01:06:11;;;;;;;0.70;0.60;;;15.00;99.90;;;;;;5096290;28;20459;-70
2022/08/21 01:08:37;;;;;;;0.60;0.40;;;14.90;99.90;;;;;;5095915;28;20419;-69
2022/08/21 01:11:04;;;;;;;0.40;0.40;;;14.90;99.90;;;;;;5096488;28;20592;-69
2022/08/21 01:13:33;;;;;;;0.30;0.30;;;14.80;99.90;;;;;;5096159;28;20407;-70
2022/08/21 01:16:02;;;;;;;0.70;0.70;;;14.80;99.90;;;;;;5095950;28;20411;-70
2022/08/21 01:18:28;;;;;;;0.40;0.40;;;14.80;99.90;;;;;;5094952;28;20498;-70
2022/08/21 01:21:04;;;;;;;1.60;0.70;;;14.80;99.90;;;;;;5096103;28;20419;-69
2022/08/21 01:23:29;;;;;;;0.50;0.50;;;14.70;99.90;;;;;;5095911;28;20398;-70
2022/08/21 01:25:55;;;;;;;0.50;0.50;;;14.60;99.90;;;;;;5095890;28;20504;-69
2022/08/21 01:28:22;;;;;;;0.63;0.57;;;14.60;99.90;;;;;;5095582;28;20217;-69
2022/08/21 01:30:50;;;;;;;0.67;0.60;;;14.60;99.90;;;;;;5095871;28;20169;-69
2022/08/21 01:33:17;;;;;;;0.80;0.80;;;14.60;99.90;;;;;;5095824;28;20399;-70
2022/08/21 01:35:43;;;;;;;0.40;0.40;;;14.60;99.90;;;;;;5095632;28;20405;-69
2022/08/21 01:38:09;;;;;;;1.67;0.57;;;14.60;99.90;;;;;;5095386;28;20518;-69
2022/08/21 01:40:34;;;;;;;0.50;0.50;;;14.60;99.90;;;;;;5095558;28;20231;-70
2022/08/21 01:43:00;;;;;;;0.40;0.40;;;14.60;99.90;;;;;;5095626;28;20403;-70
2022/08/21 01:45:26;;;;;;;0.40;0.40;;;14.50;99.90;;;;;;5095609;28;20708;-69
2022/08/21 01:47:51;;;;;;;0.50;0.50;;;14.50;99.90;;;;;;5095139;28;20193;-70
2022/08/21 01:50:19;;;;;;;0.87;0.40;;;14.40;99.90;;;;;;5095333;28;20165;-70
2022/08/21 01:52:45;;;;;;;0.53;0.53;;;14.50;99.90;;;;;;5095355;28;20221;-70
2022/08/21 01:55:13;;;;;;;0.60;0.60;;;14.60;99.90;;;;;;5095312;28;20820;-68
2022/08/21 01:57:39;;;;;;;0.63;0.63;;;14.60;99.90;;;;;;5095083;28;20193;-70
2022/08/21 02:00:10;;;;;;;0.60;0.60;;;14.70;99.90;;;;;;5095402;28;20414;-68
2022/08/21 02:02:37;;;;;;;0.40;0.40;;;14.70;99.90;;;;;;5094929;28;20460;-68
2022/08/21 02:05:04;;;;;;;0.47;0.47;;;14.70;99.90;;;;;;5094810;28;20821;-70
2022/08/21 02:07:40;;;;;;;0.80;0.80;;;14.70;99.90;;;;;;5094961;28;20480;-68
2022/08/21 02:10:08;;;;;;;0.50;0.50;;;14.80;99.90;;;;;;5095135;28;20407;-70
2022/08/21 02:12:34;;;;;;;0.40;0.40;;;14.70;99.90;;;;;;5094837;28;20751;-69
2022/08/21 02:15:00;;;;;;;0.40;0.40;;;14.70;99.90;;;;;;5095012;28;20403;-69
2022/08/21 02:17:26;;;;;;;0.47;0.47;;;14.80;99.90;;;;;;5094780;28;20481;-69
2022/08/21 02:19:52;;;;;;;0.60;0.60;;;14.80;99.90;;;;;;5094715;28;20395;-70
2022/08/21 02:22:17;;;;;;;0.50;0.50;;;14.80;99.90;;;;;;5094877;28;20848;-69
2022/08/21 02:24:43;;;;;;;0.47;0.47;;;14.70;99.90;;;;;;5094855;28;20198;-70
2022/08/21 02:27:09;;;;;;;0.50;0.50;;;14.70;99.90;;;;;;5094703;28;20193;-70
2022/08/21 02:29:35;;;;;;;0.40;0.40;;;14.60;99.90;;;;;;5093648;28;20769;-69
2022/08/21 02:32:00;;;;;;;0.50;0.50;;;14.60;99.90;;;;;;5094359;28;20696;-68
2022/08/21 02:34:26;;;;;;;1.10;0.97;;;14.50;99.90;;;;;;5094430;28;20255;-69
2022/08/21 02:36:51;;;;;;;0.50;0.50;;;14.50;99.90;;;;;;5094442;28;20183;-70
2022/08/21 02:39:17;;;;;;;0.80;0.40;;;14.40;99.90;;;;;;5094414;28;20198;-70
2022/08/21 02:41:43;;;;;;;0.57;0.57;;;14.40;99.90;;;;;;5094559;28;20175;-69
2022/08/21 02:44:09;;;;;;;0.60;0.40;;;14.40;99.90;;;;;;5094405;28;20247;-69
2022/08/21 02:46:34;;;;;;;0.50;0.43;;;14.50;99.90;;;;;;5094644;28;20399;-69
2022/08/21 02:49:00;;;;;;;0.90;0.90;;;14.60;99.90;;;;;;5094147;28;20168;-69
2022/08/21 02:51:25;;;;;;;0.50;0.50;;;14.60;99.90;;;;;;5094326;28;20599;-70
2022/08/21 02:53:51;;;;;;;0.80;0.80;;;14.80;99.90;;;;;;5094390;28;20183;-69
2022/08/21 02:56:19;;;;;;;0.30;0.30;;;14.90;99.90;;;;;;5094310;28;20177;-68
2022/08/21 02:58:51;;;;;;;1.43;1.33;;;14.90;99.90;;;;;;5093898;28;20217;-68
2022/08/21 03:01:17;;;;;;;0.40;0.40;;;14.90;99.90;;;;;;5094313;28;20403;-69
2022/08/21 03:03:46;;;;;;;0.50;0.50;;;14.90;99.90;;;;;;5093997;28;20426;-69
2022/08/21 03:06:14;;;;;;;0.90;0.53;;;14.90;99.90;;;;;;5075853;28;20546;-70
2022/08/21 03:08:40;;;;;;;1.03;1.03;;;15.00;99.90;;;;;;5093793;28;20505;-69
2022/08/21 03:11:06;;;;;;;0.90;0.70;;;15.00;99.90;;;;;;5094013;28;20842;-70
2022/08/21 03:13:32;;;;;;;0.50;0.50;;;15.10;99.90;;;;;;5093835;28;20168;-69
2022/08/21 03:15:58;;;;;;;0.50;0.40;;;15.20;99.90;;;;;;5093739;28;20411;-70
2022/08/21 03:18:23;;;;;;;0.30;0.30;;;15.30;99.90;;;;;;5093568;28;20436;-69
2022/08/21 03:20:49;;;;;;;2.40;1.80;;;15.30;99.90;;;;;;5093980;28;20449;-69
2022/08/21 03:23:17;;;;;;;0.43;0.43;;;15.20;99.90;;;;;;5093884;28;20173;-69
2022/08/21 03:25:43;;;;;;;0.63;0.60;;;15.10;99.90;;;;;;5093755;28;20259;-69
2022/08/21 03:28:12;;;;;;;0.40;0.40;;;15.10;99.90;;;;;;5093443;28;20418;-69
2022/08/21 03:30:38;;;;;;;0.43;0.43;;;15.10;99.90;;;;;;5093698;28;20407;-69
2022/08/21 03:33:04;;;;;;;0.33;0.33;;;15.10;99.90;;;;;;5093853;28;20400;-69
2022/08/21 03:35:30;;;;;;;0.50;0.40;;;15.00;99.90;;;;;;5093914;28;20177;-70
2022/08/21 03:37:55;;;;;;;0.40;0.40;;;15.00;99.90;;;;;;5093401;28;20192;-69
2022/08/21 03:40:24;;;;;;;0.80;0.80;;;15.00;99.90;;;;;;5093669;28;20184;-69
2022/08/21 03:42:50;;;;;;;0.60;0.60;;;14.80;99.90;;;;;;5097150;28;20413;-70
2022/08/21 03:45:17;;;;;;;0.40;0.40;;;14.70;99.90;;;;;;5097739;28;20488;-69
2022/08/21 03:47:58;;;;;;;0.57;0.57;;;14.70;99.90;;;;;;5097403;28;20434;-70
2022/08/21 03:50:28;;;;;;;0.40;0.40;;;14.70;99.90;;;;;;5097811;28;20406;-68
2022/08/21 03:52:54;;;;;;;0.40;0.40;;;14.60;99.90;;;;;;5079552;28;20446;-69
2022/08/21 03:55:19;;;;;;;0.70;0.70;;;14.50;99.90;;;;;;5097531;28;20493;-70
2022/08/21 03:57:45;;;;;;;0.50;0.50;;;14.60;99.90;;;;;;5097358;28;20199;-69
2022/08/21 04:00:13;;;;;;;0.40;0.40;;;14.70;99.90;;;;;;5097468;28;20639;-70
2022/08/21 04:02:39;;;;;;;0.63;0.50;;;14.70;99.90;;;;;;5097330;28;20654;-70
2022/08/21 04:05:06;;;;;;;1.43;1.37;;;14.70;99.90;;;;;;5097514;28;20446;-69
2022/08/21 04:07:32;;;;;;;0.40;0.40;;;14.60;99.90;;;;;;5097338;28;20448;-70
2022/08/21 04:09:57;;;;;;;0.50;0.50;;;14.60;99.90;;;;;;5097192;28;20485;-69
2022/08/21 04:12:23;;;;;;;0.40;0.40;;;14.60;99.90;;;;;;5097344;28;20230;-70
2022/08/21 04:14:51;;;;;;;0.50;0.50;;;14.60;99.90;;;;;;5097190;28;20579;-68
2022/08/21 04:17:17;;;;;;;0.30;0.30;;;14.50;99.90;;;;;;5097353;28;20425;-69
2022/08/21 04:19:43;;;;;;;1.07;0.80;;;14.50;99.90;;;;;;5097099;28;20438;-69
2022/08/21 04:22:09;;;;;;;1.17;0.87;;;14.50;99.90;;;;;;5097076;28;20825;-69
2022/08/21 04:24:35;;;;;;;0.87;0.80;;;14.50;99.90;;;;;;5097174;28;20466;-69
2022/08/21 04:27:00;;;;;;;1.07;0.80;;;14.40;99.90;;;;;;5097265;28;20498;-70
2022/08/21 04:29:26;;;;;;;0.40;0.40;;;14.40;99.90;;;;;;5096849;28;20186;-69
2022/08/21 04:31:52;;;;;;;0.57;0.57;;;14.40;99.90;;;;;;5097087;28;20299;-69
2022/08/21 04:34:18;;;;;;;0.37;0.37;;;14.50;99.90;;;;;;5078810;28;20208;-69
2022/08/21 04:36:44;;;;;;;0.40;0.40;;;14.60;99.90;;;;;;5097387;28;20261;-70
2022/08/21 04:39:10;;;;;;;0.40;0.40;;;14.60;99.90;;;;;;5096601;28;21005;-70
2022/08/21 04:41:36;;;;;;;0.60;0.50;;;14.70;99.90;;;;;;5097088;28;20275;-68
2022/08/21 04:44:02;;;;;;;1.43;1.33;;;14.70;99.90;;;;;;5096826;28;20256;-68
2022/08/21 04:46:28;;;;;;;0.50;0.50;;;14.70;99.90;;;;;;5096610;28;20412;-70
2022/08/21 04:48:54;;;;;;;0.50;0.50;;;14.70;99.90;;;;;;5096306;28;20423;-69
2022/08/21 04:51:28;;;;;;;0.60;0.60;;;14.70;99.90;;;;;;5096735;28;20177;-70
2022/08/21 04:54:03;;;;;;;0.67;0.67;;;14.70;99.90;;;;;;5095594;28;20869;-70
2022/08/21 04:56:39;;;;;;;1.47;0.70;;;14.60;99.90;;;;;;5096674;28;20438;-69
2022/08/21 04:59:16;;;;;;;1.07;0.90;;;14.60;99.90;;;;;;5096304;28;20391;-69
2022/08/21 05:01:43;;;;;;;0.40;0.40;;;14.60;99.90;;;;;;5096332;28;20413;-69
2022/08/21 05:04:12;;;;;;;0.40;0.40;;;14.60;99.90;;;;;;5096576;28;20419;-69
2022/08/21 05:06:41;;;;;;;0.60;0.60;;;14.60;99.90;;;;;;5096184;28;20880;-70
2022/08/21 05:09:09;;;;;;;0.40;0.40;;;14.70;99.90;;;;;;5096216;28;20407;-71
2022/08/21 05:11:35;;;;;;;0.37;0.37;;;14.70;99.90;;;;;;5096297;28;20470;-69
2022/08/21 05:14:01;;;;;;;1.23;0.50;;;14.80;99.90;;;;;;5096231;28;20410;-69
2022/08/21 05:16:27;;;;;;;0.30;0.30;;;14.80;99.90;;;;;;5095922;28;20406;-69
2022/08/21 05:18:53;;;;;;;0.50;0.50;;;15.00;99.90;;;;;;5095606;28;20954;-69
2022/08/21 05:21:19;;;;;;;0.40;0.40;;;15.10;99.90;;;;;;5095925;28;20399;-70
2022/08/21 05:23:44;;;;;;;0.40;0.30;;;15.10;99.90;;;;;;5096053;28;20166;-70
2022/08/21 05:26:10;;;;;;;0.40;0.40;;;15.10;99.90;;;;;;5095937;28;20198;-68
2022/08/21 05:28:35;;;;;;;0.40;0.40;;;15.20;99.90;;;;;;5095648;28;20192;-68
2022/08/21 05:31:01;;;;;;;0.60;0.60;;;15.10;99.90;;;;;;5095746;28;20166;-70
2022/08/21 05:33:27;;;;;;;0.60;0.50;;;15.20;99.90;;;;;;5095848;28;20597;-70
2022/08/21 05:35:57;;;;;;;0.70;0.70;;;15.20;99.90;;;;;;5095645;28;20210;-69
2022/08/21 05:38:26;;;;;;;0.77;0.77;;;15.30;99.90;;;;;;5095426;28;20890;-70
2022/08/21 05:40:52;;;;;;;0.60;0.60;;;15.40;99.90;;;;;;5095865;28;20434;-69
2022/08/21 05:43:18;;;;;;;0.40;0.40;;;15.50;99.90;;;;;;5095652;28;20413;-69
2022/08/21 05:45:43;;;;;;;0.40;0.40;;;15.60;99.90;;;;;;5095421;28;20200;-70
2022/08/21 05:48:23;;;;;;;0.50;0.50;;;15.70;99.90;;;;;;5077054;28;20287;-69
2022/08/21 05:50:51;;;;;;;0.97;0.70;;;15.80;99.90;;;;;;5095635;28;20171;-69
2022/08/21 05:53:18;;;;;;;0.43;0.43;;;15.90;99.90;;;;;;5095464;28;20434;-69
2022/08/21 05:55:45;;;;;;;0.67;0.43;;;16.00;99.90;;;;;;5095195;28;20406;-70
2022/08/21 05:58:12;;;;;;;0.60;0.60;;;16.20;99.90;;;;;;5094886;28;20427;-70
2022/08/21 06:00:37;;;;;;;0.50;0.50;;;16.30;99.90;;;;;;5095227;28;20422;-69
2022/08/21 06:03:04;;;;;;;0.60;0.60;;;16.40;99.90;;;;;;5095249;28;20433;-69
2022/08/21 06:05:30;;;;;;;0.90;0.70;;;16.50;99.90;;;;;;5095169;28;20193;-69
2022/08/21 06:07:56;;;;;;;0.60;0.60;;;16.70;99.90;;;;;;5094983;28;20435;-69
2022/08/21 06:10:21;;;;;;;0.60;0.60;;;16.90;99.90;;;;;;5077021;28;20406;-70
2022/08/21 06:12:53;;;;;;;0.60;0.57;;;17.10;99.90;;;;;;5094911;28;20173;-69
2022/08/21 06:15:18;;;;;;;0.67;0.67;;;17.50;99.90;;;;;;5095191;28;20177;-69
2022/08/21 06:17:44;;;;;;;0.30;0.30;;;17.90;99.90;;;;;;5076460;28;20442;-70
2022/08/21 06:20:10;;;;;;;0.40;0.40;;;18.40;99.90;;;;;;5095122;28;20257;-70
2022/08/21 06:22:35;;;;;;;0.40;0.40;;;18.80;99.90;;;;;;5095053;28;20180;-69
2022/08/21 06:25:01;;;;;;;0.90;0.70;;;19.10;99.90;;;;;;5094832;28;20304;-69
2022/08/21 06:27:26;;;;;;;0.63;0.63;;;19.30;99.90;;;;;;5094800;28;20614;-69
2022/08/21 06:29:52;;;;;;;0.40;0.40;;;19.50;99.90;;;;;;5094564;28;20251;-69
2022/08/21 06:32:18;;;;;;;0.30;0.30;;;19.70;99.90;;;;;;5094581;28;20175;-70
2022/08/21 06:34:43;;;;;;;0.50;0.50;;;19.90;99.90;;;;;;5094678;28;20406;-69
2022/08/21 06:37:09;;;;;;;0.40;0.40;;;20.30;99.70;;;;;;5094489;28;20197;-71
2022/08/21 06:39:35;;;;;;;0.50;0.50;;;20.70;99.20;;;;;;5094179;28;20655;-69
2022/08/21 06:42:01;;;;;;;0.40;0.40;;;21.20;98.60;;;;;;5094384;28;20220;-70
2022/08/21 06:44:27;;;;;;;0.53;0.43;;;21.60;97.20;;;;;;5094462;28;20452;-70
2022/08/21 06:46:53;;;;;;;0.40;0.40;;;21.90;96.60;;;;;;5094331;28;20403;-69
2022/08/21 06:49:18;;;;;;;0.50;0.50;;;22.10;96.40;;;;;;5094179;28;20404;-71
2022/08/21 06:51:44;;;;;;;0.40;0.40;;;22.00;96.10;;;;;;5094401;28;20626;-71
2022/08/21 06:54:10;;;;;;;0.50;0.40;;;21.90;96.10;;;;;;5076181;28;20184;-69
2022/08/21 06:56:38;;;;;;;0.50;0.40;;;21.80;96.30;;;;;;5093998;28;20184;-69
2022/08/21 06:59:04;;;;;;;0.40;0.40;;;21.90;96.30;;;;;;5094082;28;20179;-70
2022/08/21 07:01:30;;;;;;;0.40;0.40;;;21.90;96.10;;;;;;5094115;28;20761;-70
2022/08/21 07:03:56;;;;;;;0.40;0.40;;;22.20;96.50;;;;;;5075868;28;20458;-69
2022/08/21 07:06:22;;;;;;;0.40;0.40;;;22.40;95.90;;;;;;5093921;28;20457;-69
2022/08/21 07:08:47;;;;;;;0.73;0.50;;;22.50;95.50;;;;;;5093646;28;20200;-70
2022/08/21 07:11:18;;;;;;;0.40;0.40;;;22.50;95.20;;;;;;5094118;28;20172;-69
2022/08/21 07:13:44;;;;;;;1.00;0.67;;;22.50;95.40;;;;;;5093922;28;20571;-69
2022/08/21 07:16:10;;;;;;;0.40;0.40;;;22.80;95.20;;;;;;5093362;28;20417;-70
2022/08/21 07:18:35;;;;;;;0.40;0.40;;;23.60;94.20;;;;;;5093609;28;20714;-71
2022/08/21 07:21:03;;;;;;;0.40;0.40;;;24.10;93.60;;;;;;5093978;28;20399;-69
2022/08/21 07:23:32;;;;;;;1.23;0.90;;;24.40;92.70;;;;;;5093716;28;20169;-70
2022/08/21 07:26:01;;;;;;;0.67;0.60;;;24.80;91.70;;;;;;5093858;28;20450;-71
2022/08/21 07:28:28;;;;;;;0.50;0.50;;;24.90;91.60;;;;;;5093438;28;20419;-70
2022/08/21 07:30:55;;;;;;;0.40;0.40;;;24.80;91.80;;;;;;5093700;28;20510;-70
2022/08/21 07:33:21;;;;;;;0.50;0.50;;;24.50;92.10;;;;;;5093833;28;20384;-70
2022/08/21 07:35:47;;;;;;;0.30;0.30;;;24.10;92.10;;;;;;5093710;28;20408;-70
2022/08/21 07:38:13;;;;;;;0.50;0.50;;;23.70;92.30;;;;;;5093380;28;21007;-70
2022/08/21 07:40:39;;;;;;;0.40;0.40;;;23.60;92.90;;;;;;5093817;28;20245;-70
2022/08/21 07:43:05;;;;;;;0.60;0.60;;;23.50;93.40;;;;;;5093706;28;20233;-69
2022/08/21 07:45:31;;;;;;;0.47;0.47;;;23.50;93.60;;;;;;5093637;28;20204;-71
2022/08/21 07:47:56;;;;;;;0.40;0.40;;;23.40;93.60;;;;;;5093351;28;20793;-71
2022/08/21 07:50:22;;;;;;;0.43;0.43;;;23.40;93.80;;;;;;5093934;28;20399;-70
2022/08/21 07:52:48;;;;;;;0.33;0.33;;;23.30;93.60;;;;;;5093477;28;20176;-70
2022/08/21 07:55:17;;;;;;;0.57;0.50;;;23.20;93.80;;;;;;5093862;28;20169;-69
2022/08/21 07:57:43;;;;;;;0.40;0.40;;;23.70;93.80;;;;;;5093154;28;20222;-70
2022/08/21 08:00:13;;;;;;;0.70;0.70;;;24.30;92.60;;;;;;5093534;28;20456;-71
2022/08/21 08:02:39;;;;;;;0.70;0.70;;;25.30;91.70;;;;;;5093039;28;20897;-70
2022/08/21 08:05:09;;;;;;;1.77;0.80;;;26.10;89.50;;;;;;5093472;28;20453;-71
2022/08/21 08:07:35;;;;;;;0.40;0.40;;;26.80;87.80;;;;;;5093256;28;20419;-70
2022/08/21 08:10:02;;;;;;;0.50;0.50;;;26.90;81.40;;;;;;5093238;28;20432;-71
2022/08/21 08:12:29;;;;;;;0.40;0.40;;;27.00;81.30;;;;;;5093336;28;20409;-69
2022/08/21 08:14:58;;;;;;;1.03;0.70;;;27.10;77.90;;;;;;5093460;28;20451;-71
2022/08/21 08:17:25;;;;;;;0.60;0.60;;;27.50;74.30;;;;;;5093357;28;20931;-71
2022/08/21 08:19:50;;;;;;;0.40;0.40;;;27.90;71.10;;;;;;5093031;28;20764;-70
2022/08/21 08:22:19;;;;;;;0.30;0.30;;;28.00;70.80;;;;;;5075146;28;20411;-69
2022/08/21 08:24:45;;;;;;;0.50;0.50;;;27.70;68.40;;;;;;5093174;28;20197;-71
2022/08/21 08:27:11;;;;;;;0.50;0.50;;;27.60;66.60;;;;;;5093967;28;20423;-71
2022/08/21 08:29:37;;;;;;;0.50;0.50;;;28.10;66.70;;;;;;5096781;28;20422;-71
2022/08/21 08:32:04;;;;;;;0.40;0.40;;;29.10;65.40;;;;;;5097016;28;20410;-71
2022/08/21 08:34:30;;;;;;;0.50;0.50;;;29.60;64.40;;;;;;5097313;28;20172;-71
2022/08/21 08:36:58;;;;;;;0.90;0.60;;;30.50;59.40;;;;;;5096959;28;20930;-71
2022/08/21 08:39:24;;;;;;;0.50;0.50;;;30.80;57.60;;;;;;5096806;28;20567;-70
2022/08/21 08:41:56;;;;;;;0.60;0.60;;;31.80;53.90;;;;;;5096860;28;20417;-71
2022/08/21 08:44:21;;;;;;;0.60;0.50;;;33.20;51.30;;;;;;5096671;28;20502;-70
2022/08/21 08:46:51;;;;;;;0.33;0.33;;;34.20;51.20;;;;;;5096541;28;20486;-70
2022/08/21 08:49:30;;;;;;;1.00;0.60;;;35.30;48.10;;;;;;5096560;28;20173;-71
2022/08/21 08:52:30;;;;;;;0.50;0.40;;;36.10;43.60;;;;;;5096795;28;20402;-72
2022/08/21 08:55:42;;;;;;;1.03;0.40;;;36.30;44.30;;;;;;5093175;28;20430;-71
2022/08/21 08:58:23;;;;;;;0.50;0.50;;;36.80;41.00;;;;;;5091953;28;20434;-71
2022/08/21 09:00:53;;;;;;;0.40;0.30;;;36.90;39.60;;;;;;5096548;28;20395;-72
2022/08/21 09:03:20;;;;;;;0.60;0.47;;;36.50;40.20;;;;;;5096190;28;20426;-70
2022/08/21 09:05:55;;;;;;;0.70;0.50;;;36.80;41.60;;;;;;5096172;28;20500;-70
2022/08/21 09:08:36;;;;;;;0.83;0.60;;;35.60;38.90;;;;;;5096119;28;20429;-70
2022/08/21 09:11:36;;;;;;;0.60;0.43;;;34.60;41.60;;;;;;5096322;28;20552;-71
2022/08/21 09:14:43;;;;;;;0.80;0.57;;;33.70;41.20;;;;;;5096360;28;20403;-71
2022/08/21 09:17:50;;;;;;;0.50;0.40;;;31.80;43.50;;;;;;5033777;28;20846;-71
2022/08/21 09:20:39;;;;;;;0.30;0.30;;;32.30;44.30;;;;;;5034016;28;20410;-71
2022/08/21 09:23:12;;;;;;;0.70;0.60;;;32.90;43.10;;;;;;5091309;28;20407;-70
2022/08/21 09:26:11;;;;;;;0.43;0.43;;;33.60;41.30;;;;;;5096059;28;20499;-71
2022/08/21 09:28:36;;;;;;;0.50;0.50;;;33.60;42.00;;;;;;5095249;28;20817;-71
2022/08/21 09:31:08;;;;;;;0.70;0.70;;;34.40;41.40;;;;;;5095726;28;20492;-71
2022/08/21 09:33:34;;;;;;;0.60;0.60;;;35.10;39.50;;;;;;5095858;28;20196;-71
2022/08/21 09:36:00;;;;;;;0.50;0.50;;;35.10;39.80;;;;;;5094687;28;20411;-71
2022/08/21 09:38:32;;;;;;;0.50;0.50;;;34.80;40.60;;;;;;5094045;28;20676;-71
2022/08/21 09:41:05;;;;;;;0.50;0.50;;;34.20;40.20;;;;;;5095299;28;20173;-71
2022/08/21 09:43:32;;;;;;;0.70;0.43;;;32.90;42.80;;;;;;5093901;28;20407;-71
2022/08/21 09:46:23;;;;;;;0.50;0.50;;;30.90;44.30;;;;;;5095138;28;21001;-70
2022/08/21 09:48:56;;;;;;;0.40;0.40;;;29.40;48.60;;;;;;5095244;28;20855;-70
2022/08/21 09:51:29;;;;;;;0.60;0.60;;;28.10;52.40;;;;;;5093621;28;20939;-70
2022/08/21 09:54:05;;;;;;;0.50;0.50;;;27.30;55.10;;;;;;5095618;28;20815;-70
2022/08/21 09:59:34;;;;;;;0.50;0.50;;;26.00;58.10;;;;;;5095371;28;20381;-70
2022/08/21 10:02:03;;;;;;;0.70;0.70;;;25.50;57.60;;;;;;5094995;28;20430;-70
2022/08/21 10:04:35;;;;;;;0.50;0.50;;;25.30;59.10;;;;;;5095287;28;20253;-70
2022/08/21 10:07:12;;;;;;;0.63;0.63;;;25.10;58.20;;;;;;5095124;28;20433;-71
2022/08/21 10:09:39;;;;;;;1.07;0.80;;;25.00;59.00;;;;;;5095154;28;20505;-69
2022/08/21 10:12:23;;;;;;;0.40;0.40;;;25.00;60.40;;;;;;5094971;28;20463;-69
2022/08/21 10:14:54;;;;;;;0.40;0.40;;;24.90;59.40;;;;;;5076848;28;20414;-70
2022/08/21 10:17:44;;;;;;;0.40;0.40;;;24.90;59.80;;;;;;5094863;28;20951;-69
2022/08/21 10:20:33;;;;;;;0.50;0.50;;;24.90;60.60;;;;;;5094813;28;20389;-70
2022/08/21 10:23:14;;;;;;;0.80;0.60;;;25.40;61.70;;;;;;5094798;28;20380;-70
2022/08/21 10:26:09;;;;;;;0.47;0.47;;;26.60;58.00;;;;;;5094892;28;20442;-70
2022/08/21 10:29:01;;;;;;;0.50;0.50;;;27.70;54.10;;;;;;5076369;28;20875;-70
2022/08/21 10:31:46;;;;;;;0.40;0.40;;;27.60;54.70;;;;;;5094821;28;20750;-70
2022/08/21 10:34:33;;;;;;;1.13;0.50;;;27.80;55.00;;;;;;5094823;28;20431;-69
2022/08/21 10:37:27;;;;;;;0.50;0.40;;;28.00;55.60;;;;;;5094628;28;20422;-70
2022/08/21 10:40:26;;;;;;;0.40;0.40;;;28.60;54.50;;;;;;5094368;28;20427;-71
2022/08/21 10:43:29;;;;;;;0.40;0.40;;;29.60;52.30;;;;;;5094636;28;20410;-70
2022/08/21 10:46:21;;;;;;;1.43;0.60;;;30.10;49.90;;;;;;5094323;28;20532;-70
2022/08/21 10:48:56;;;;;;;4.73;0.57;;;29.60;51.20;;;;;;5094137;28;20427;-70
2022/08/21 10:51:34;;;;;;;0.77;0.60;;;29.00;50.80;;;;;;5093652;28;20787;-70
2022/08/21 10:54:41;;;;;;;0.40;0.40;;;28.70;51.60;;;;;;5094457;28;20399;-69
2022/08/21 10:57:17;;;;;;;0.50;0.50;;;28.70;52.80;;;;;;5094168;28;20430;-70
2022/08/21 10:59:51;;;;;;;0.60;0.60;;;29.20;51.60;;;;;;5094173;28;20482;-70
2022/08/21 11:02:33;;;;;;;1.03;0.90;;;29.10;52.20;;;;;;5094011;28;20886;-70
2022/08/21 11:05:10;;;;;;;1.33;0.60;;;28.80;52.30;;;;;;5076043;28;20457;-70
2022/08/21 11:07:43;;;;;;;0.40;0.40;;;28.40;51.90;;;;;;5093904;28;20476;-70
2022/08/21 11:10:27;;;;;;;0.43;0.43;;;28.00;53.90;;;;;;5094158;28;20816;-70
2022/08/21 11:13:00;;;;;;;0.60;0.60;;;27.50;54.60;;;;;;5094181;28;20883;-69
2022/08/21 11:15:34;;;;;;;0.40;0.40;;;27.50;54.10;;;;;;5093949;28;20397;-70
2022/08/21 11:18:28;;;;;;;0.70;0.70;;;27.40;54.10;;;;;;5093525;28;20434;-70
2022/08/21 11:21:19;;;;;;;0.90;0.40;;;27.40;56.20;;;;;;5093735;28;20418;-70
2022/08/21 11:23:54;;;;;;;0.90;0.63;;;27.70;57.80;;;;;;5075815;28;20415;-70
2022/08/21 11:26:41;;;;;;;0.40;0.40;;;28.00;56.80;;;;;;5093824;28;20540;-70
2022/08/21 11:29:30;;;;;;;0.57;0.50;;;28.00;54.70;;;;;;5093564;28;20445;-70
2022/08/21 11:32:13;;;;;;;0.50;0.50;;;27.80;54.60;;;;;;5093774;28;20928;-70
2022/08/21 11:35:09;;;;;;;0.50;0.50;;;27.40;54.00;;;;;;5093894;28;20760;-69
2022/08/21 11:37:35;;;;;;;0.70;0.70;;;26.90;54.40;;;;;;5093371;28;20466;-70
2022/08/21 11:40:09;;;;;;;0.90;0.83;;;26.40;56.40;;;;;;5093552;28;20410;-70
2022/08/21 11:42:50;;;;;;;0.70;0.70;;;25.90;57.70;;;;;;5093814;28;20228;-69
2022/08/21 11:45:43;;;;;;;1.00;0.50;;;25.50;58.60;;;;;;5093710;28;20451;-69
2022/08/21 11:48:24;;;;;;;0.70;0.50;;;25.20;58.50;;;;;;5093542;28;20419;-70
2022/08/21 11:50:51;;;;;;;0.40;0.40;;;24.90;61.40;;;;;;5093600;28;20725;-69
2022/08/21 11:53:19;;;;;;;0.50;0.50;;;24.80;61.60;;;;;;5093683;28;20435;-70
2022/08/21 11:56:11;;;;;;;0.40;0.40;;;24.80;63.30;;;;;;5093612;28;20381;-70
2022/08/21 11:58:39;;;;;;;0.60;0.60;;;24.70;62.20;;;;;;5093310;28;20517;-70
2022/08/21 12:01:09;;;;;;;0.40;0.40;;;24.70;60.60;;;;;;5093534;28;20976;-69
2022/08/21 12:04:01;;;;;;;0.40;0.40;;;24.80;64.30;;;;;;5096432;28;20433;-70
2022/08/21 12:06:33;;;;;;;0.50;0.50;;;24.60;62.60;;;;;;5096555;28;20442;-69
2022/08/21 12:09:02;;;;;;;0.80;0.60;;;24.30;63.40;;;;;;5097167;28;20800;-69
2022/08/21 12:11:28;;;;;;;0.63;0.63;;;24.10;65.70;;;;;;5097591;28;20373;-70
2022/08/21 12:14:06;;;;;;;0.40;0.40;;;23.90;64.20;;;;;;5097407;28;20453;-69
2022/08/21 12:16:39;;;;;;;0.50;0.50;;;23.90;64.50;;;;;;5097532;28;20177;-70
2022/08/21 12:19:12;;;;;;;0.50;0.50;;;24.00;64.10;;;;;;5097091;28;20380;-70
2022/08/21 12:22:06;;;;;;;0.50;0.50;;;23.90;63.00;;;;;;5097379;28;20451;-68
2022/08/21 12:24:37;;;;;;;0.50;0.50;;;23.90;64.70;;;;;;5097068;28;20381;-69
2022/08/21 12:27:26;;;;;;;0.60;0.50;;;23.90;65.60;;;;;;5097151;28;20509;-69
2022/08/21 12:30:02;;;;;;;0.47;0.47;;;23.80;67.40;;;;;;5096852;28;20425;-69
2022/08/21 12:32:42;;;;;;;0.43;0.43;;;23.90;68.70;;;;;;5097044;28;20407;-69
2022/08/21 12:35:17;;;;;;;0.43;0.43;;;23.80;68.10;;;;;;5097015;28;20398;-69
2022/08/21 12:38:12;;;;;;;0.63;0.63;;;23.80;68.10;;;;;;5096622;28;20755;-70
2022/08/21 12:40:54;;;;;;;0.53;0.50;;;23.80;74.90;;;;;;5093571;28;20426;-69
2022/08/21 12:43:30;;;;;;;0.53;0.53;;;23.70;71.10;;;;;;5096911;28;20477;-70
2022/08/21 12:45:56;;;;;;;0.53;0.53;;;23.70;70.90;;;;;;5096798;28;20523;-70
2022/08/21 12:48:49;;;;;;;0.40;0.40;;;23.80;76.90;;;;;;5096694;28;21029;-71
2022/08/21 12:51:21;;;;;;;0.40;0.40;;;23.80;71.10;;;;;;5096701;28;20762;-70
2022/08/21 12:53:54;;;;;;;0.50;0.50;;;23.90;69.70;;;;;;5096656;28;20395;-69
2022/08/21 12:56:22;;;;;;;0.67;0.67;;;24.00;70.70;;;;;;5096658;28;20885;-70
2022/08/21 12:59:05;;;;;;;0.50;0.50;;;24.00;70.00;;;;;;5096200;28;20401;-69
2022/08/21 13:01:33;;;;;;;0.60;0.50;;;23.90;71.60;;;;;;5096352;28;20395;-69
2022/08/21 13:04:07;;;;;;;0.53;0.53;;;23.90;70.90;;;;;;5096418;28;20494;-70
2022/08/21 13:06:39;;;;;;;0.70;0.60;;;24.00;72.60;;;;;;5096467;28;20450;-70
2022/08/21 13:09:09;;;;;;;0.40;0.40;;;24.30;72.70;;;;;;5077905;28;20876;-70
2022/08/21 13:11:35;;;;;;;0.47;0.47;;;24.60;71.30;;;;;;5078015;28;20411;-69